Rothbury, Michigan
Current Conditions -  °F | °C
As of 8:11 PM on Tuesday 21 Oct 2014 (Local Time) from KFFX Reporting Station
Clear Clear  
Wind Chill: 42°   Ceiling: Unl
Heat Index: 46°   Visibility: 10mi
Dew Point: 27°   Wind: 6mph
Humidity: 49%   Direction: 20°NNE
Pressure: 30.21"   Gusts: NA
Location:  43.51°N, 86.35°W
Report Text: KFFX 220011Z AUTO 02005KT 10SM CLR 08/M03 A3021 RMK AO2 T00751026
Loading
Personal Weather Stations






























Interactive Weather Map
Tropical Storm Tracking
New forecast layout! Learn more

10-Day Weather Forecast

Advertisements
Track Severe Weather on mobile